sensor_id;sensor_type;location;lat;lon;timestamp;P1;durP1;ratioP1;P2;durP2;ratioP2
41502;SDS011;27237;42.554;22.966;2022-07-11T00:02:00;2.67;;;1.10;;
41502;SDS011;27237;42.554;22.966;2022-07-11T00:04:27;3.38;;;1.13;;
41502;SDS011;27237;42.554;22.966;2022-07-11T00:06:53;3.33;;;1.45;;
41502;SDS011;27237;42.554;22.966;2022-07-11T00:09:18;5.93;;;1.40;;
41502;SDS011;27237;42.554;22.966;2022-07-11T00:11:44;1.45;;;1.20;;
41502;SDS011;27237;42.554;22.966;2022-07-11T00:14:09;3.67;;;1.10;;
41502;SDS011;27237;42.554;22.966;2022-07-11T00:16:35;5.25;;;1.35;;
41502;SDS011;27237;42.554;22.966;2022-07-11T00:19:00;7.53;;;1.17;;
41502;SDS011;27237;42.554;22.966;2022-07-11T00:21:25;1.98;;;1.13;;
41502;SDS011;27237;42.554;22.966;2022-07-11T00:23:51;4.97;;;1.40;;
41502;SDS011;27237;42.554;22.966;2022-07-11T00:26:16;3.58;;;1.85;;
41502;SDS011;27237;42.554;22.966;2022-07-11T00:28:42;5.25;;;1.35;;
41502;SDS011;27237;42.554;22.966;2022-07-11T00:31:07;4.60;;;1.58;;
41502;SDS011;27237;42.554;22.966;2022-07-11T00:33:33;5.90;;;1.30;;
41502;SDS011;27237;42.554;22.966;2022-07-11T00:35:59;1.73;;;1.30;;
41502;SDS011;27237;42.554;22.966;2022-07-11T00:38:24;7.28;;;1.65;;
41502;SDS011;27237;42.554;22.966;2022-07-11T00:40:50;3.97;;;1.42;;
41502;SDS011;27237;42.554;22.966;2022-07-11T00:43:15;2.00;;;1.38;;
41502;SDS011;27237;42.554;22.966;2022-07-11T00:45:44;7.13;;;1.42;;
41502;SDS011;27237;42.554;22.966;2022-07-11T00:48:12;0.90;;;0.90;;
41502;SDS011;27237;42.554;22.966;2022-07-11T00:50:38;5.63;;;1.20;;
41502;SDS011;27237;42.554;22.966;2022-07-11T00:53:03;6.22;;;1.00;;
41502;SDS011;27237;42.554;22.966;2022-07-11T00:55:29;1.40;;;1.08;;
41502;SDS011;27237;42.554;22.966;2022-07-11T00:57:55;12.63;;;1.55;;
41502;SDS011;27237;42.554;22.966;2022-07-11T01:00:20;2.53;;;1.33;;
41502;SDS011;27237;42.554;22.966;2022-07-11T01:02:46;3.10;;;1.30;;
41502;SDS011;27237;42.554;22.966;2022-07-11T01:05:11;10.25;;;1.23;;
41502;SDS011;27237;42.554;22.966;2022-07-11T01:07:38;5.40;;;1.20;;
41502;SDS011;27237;42.554;22.966;2022-07-11T01:10:03;8.93;;;1.40;;
41502;SDS011;27237;42.554;22.966;2022-07-11T01:12:29;5.00;;;1.40;;
41502;SDS011;27237;42.554;22.966;2022-07-11T01:14:56;4.78;;;2.08;;
41502;SDS011;27237;42.554;22.966;2022-07-11T01:17:22;4.72;;;2.03;;
41502;SDS011;27237;42.554;22.966;2022-07-11T01:19:48;7.20;;;2.10;;
41502;SDS011;27237;42.554;22.966;2022-07-11T01:22:14;6.50;;;1.75;;
41502;SDS011;27237;42.554;22.966;2022-07-11T01:24:43;3.80;;;1.73;;
41502;SDS011;27237;42.554;22.966;2022-07-11T01:27:10;6.20;;;1.55;;
41502;SDS011;27237;42.554;22.966;2022-07-11T01:29:37;3.88;;;2.13;;
41502;SDS011;27237;42.554;22.966;2022-07-11T01:32:04;5.10;;;2.35;;
41502;SDS011;27237;42.554;22.966;2022-07-11T01:34:30;11.45;;;2.03;;
41502;SDS011;27237;42.554;22.966;2022-07-11T01:36:55;3.33;;;2.08;;
41502;SDS011;27237;42.554;22.966;2022-07-11T01:39:20;4.75;;;2.10;;
41502;SDS011;27237;42.554;22.966;2022-07-11T01:41:46;3.78;;;1.67;;
41502;SDS011;27237;42.554;22.966;2022-07-11T01:44:11;3.67;;;1.80;;
41502;SDS011;27237;42.554;22.966;2022-07-11T01:46:37;2.25;;;1.58;;
41502;SDS011;27237;42.554;22.966;2022-07-11T01:49:02;3.80;;;1.88;;
41502;SDS011;27237;42.554;22.966;2022-07-11T01:51:28;5.70;;;1.55;;
41502;SDS011;27237;42.554;22.966;2022-07-11T01:53:54;3.97;;;1.95;;
41502;SDS011;27237;42.554;22.966;2022-07-11T01:56:21;3.88;;;1.70;;
41502;SDS011;27237;42.554;22.966;2022-07-11T01:58:47;6.95;;;1.98;;
41502;SDS011;27237;42.554;22.966;2022-07-11T02:01:12;4.60;;;1.65;;
41502;SDS011;27237;42.554;22.966;2022-07-11T02:03:38;2.60;;;1.60;;
41502;SDS011;27237;42.554;22.966;2022-07-11T02:06:04;3.42;;;1.38;;
41502;SDS011;27237;42.554;22.966;2022-07-11T02:08:29;2.17;;;1.88;;
41502;SDS011;27237;42.554;22.966;2022-07-11T02:10:55;5.15;;;1.92;;
41502;SDS011;27237;42.554;22.966;2022-07-11T02:13:21;6.95;;;1.67;;
41502;SDS011;27237;42.554;22.966;2022-07-11T02:15:48;9.98;;;1.90;;
41502;SDS011;27237;42.554;22.966;2022-07-11T02:18:18;3.40;;;1.70;;
41502;SDS011;27237;42.554;22.966;2022-07-11T02:20:45;7.57;;;1.70;;
41502;SDS011;27237;42.554;22.966;2022-07-11T02:23:11;1.65;;;1.55;;
41502;SDS011;27237;42.554;22.966;2022-07-11T02:25:37;4.40;;;2.05;;
41502;SDS011;27237;42.554;22.966;2022-07-11T02:28:04;2.10;;;1.40;;
41502;SDS011;27237;42.554;22.966;2022-07-11T02:30:33;1.83;;;1.60;;
41502;SDS011;27237;42.554;22.966;2022-07-11T02:32:59;4.30;;;1.55;;
41502;SDS011;27237;42.554;22.966;2022-07-11T02:35:25;4.45;;;2.17;;
41502;SDS011;27237;42.554;22.966;2022-07-11T02:37:51;5.78;;;1.65;;
41502;SDS011;27237;42.554;22.966;2022-07-11T02:40:16;2.70;;;1.67;;
41502;SDS011;27237;42.554;22.966;2022-07-11T02:42:42;4.50;;;1.48;;
41502;SDS011;27237;42.554;22.966;2022-07-11T02:45:07;2.53;;;1.20;;
41502;SDS011;27237;42.554;22.966;2022-07-11T02:47:34;3.30;;;1.65;;
41502;SDS011;27237;42.554;22.966;2022-07-11T02:50:01;5.65;;;2.05;;
41502;SDS011;27237;42.554;22.966;2022-07-11T02:52:26;6.22;;;2.70;;
41502;SDS011;27237;42.554;22.966;2022-07-11T02:54:52;10.73;;;2.38;;
41502;SDS011;27237;42.554;22.966;2022-07-11T02:57:17;2.83;;;1.75;;
41502;SDS011;27237;42.554;22.966;2022-07-11T02:59:43;11.90;;;4.80;;
41502;SDS011;27237;42.554;22.966;2022-07-11T03:02:08;13.35;;;3.40;;
41502;SDS011;27237;42.554;22.966;2022-07-11T03:04:33;9.23;;;4.88;;
41502;SDS011;27237;42.554;22.966;2022-07-11T03:06:59;4.97;;;3.28;;
41502;SDS011;27237;42.554;22.966;2022-07-11T03:09:24;8.48;;;2.83;;
41502;SDS011;27237;42.554;22.966;2022-07-11T03:11:50;6.95;;;2.83;;
41502;SDS011;27237;42.554;22.966;2022-07-11T03:14:16;11.68;;;3.33;;
41502;SDS011;27237;42.554;22.966;2022-07-11T03:16:41;8.35;;;3.42;;
41502;SDS011;27237;42.554;22.966;2022-07-11T03:19:07;3.65;;;2.80;;
41502;SDS011;27237;42.554;22.966;2022-07-11T03:21:32;4.45;;;2.42;;
41502;SDS011;27237;42.554;22.966;2022-07-11T03:23:58;3.83;;;2.28;;
41502;SDS011;27237;42.554;22.966;2022-07-11T03:26:23;9.50;;;3.03;;
41502;SDS011;27237;42.554;22.966;2022-07-11T03:28:49;7.78;;;3.60;;
41502;SDS011;27237;42.554;22.966;2022-07-11T03:31:14;19.45;;;6.30;;
41502;SDS011;27237;42.554;22.966;2022-07-11T03:33:39;27.15;;;9.98;;
41502;SDS011;27237;42.554;22.966;2022-07-11T03:36:05;14.18;;;4.47;;
41502;SDS011;27237;42.554;22.966;2022-07-11T03:38:31;14.90;;;6.75;;
41502;SDS011;27237;42.554;22.966;2022-07-11T03:40:56;19.50;;;6.72;;
41502;SDS011;27237;42.554;22.966;2022-07-11T03:43:22;11.73;;;4.55;;
41502;SDS011;27237;42.554;22.966;2022-07-11T03:45:48;11.93;;;4.80;;
41502;SDS011;27237;42.554;22.966;2022-07-11T03:48:13;16.15;;;4.88;;
41502;SDS011;27237;42.554;22.966;2022-07-11T03:50:39;6.68;;;3.25;;
41502;SDS011;27237;42.554;22.966;2022-07-11T03:53:04;8.27;;;3.53;;
41502;SDS011;27237;42.554;22.966;2022-07-11T03:55:30;10.63;;;3.70;;
41502;SDS011;27237;42.554;22.966;2022-07-11T03:57:56;9.80;;;2.90;;
41502;SDS011;27237;42.554;22.966;2022-07-11T04:00:21;6.10;;;2.50;;
41502;SDS011;27237;42.554;22.966;2022-07-11T04:02:47;6.07;;;3.42;;
41502;SDS011;27237;42.554;22.966;2022-07-11T04:05:13;9.50;;;3.58;;
41502;SDS011;27237;42.554;22.966;2022-07-11T04:07:39;5.68;;;3.78;;
41502;SDS011;27237;42.554;22.966;2022-07-11T04:10:04;10.95;;;3.80;;
41502;SDS011;27237;42.554;22.966;2022-07-11T04:12:30;15.30;;;4.65;;
41502;SDS011;27237;42.554;22.966;2022-07-11T04:14:56;12.35;;;4.43;;
41502;SDS011;27237;42.554;22.966;2022-07-11T04:17:21;12.85;;;5.88;;
41502;SDS011;27237;42.554;22.966;2022-07-11T04:19:47;13.13;;;6.18;;
41502;SDS011;27237;42.554;22.966;2022-07-11T04:22:15;14.70;;;6.22;;
41502;SDS011;27237;42.554;22.966;2022-07-11T04:24:41;11.40;;;4.90;;
41502;SDS011;27237;42.554;22.966;2022-07-11T04:27:07;8.88;;;4.65;;
41502;SDS011;27237;42.554;22.966;2022-07-11T04:29:32;5.32;;;2.85;;
41502;SDS011;27237;42.554;22.966;2022-07-11T04:31:58;8.10;;;2.90;;
41502;SDS011;27237;42.554;22.966;2022-07-11T04:34:23;12.35;;;3.38;;
41502;SDS011;27237;42.554;22.966;2022-07-11T04:36:49;9.30;;;2.47;;
41502;SDS011;27237;42.554;22.966;2022-07-11T04:39:14;18.40;;;4.00;;
41502;SDS011;27237;42.554;22.966;2022-07-11T04:41:39;9.90;;;5.25;;
41502;SDS011;27237;42.554;22.966;2022-07-11T04:44:05;15.05;;;5.10;;
41502;SDS011;27237;42.554;22.966;2022-07-11T04:46:30;12.98;;;4.18;;
41502;SDS011;27237;42.554;22.966;2022-07-11T04:48:57;19.00;;;4.75;;
41502;SDS011;27237;42.554;22.966;2022-07-11T04:51:23;11.55;;;4.32;;
41502;SDS011;27237;42.554;22.966;2022-07-11T04:53:49;17.75;;;3.63;;
41502;SDS011;27237;42.554;22.966;2022-07-11T04:56:15;12.60;;;3.67;;
41502;SDS011;27237;42.554;22.966;2022-07-11T04:58:41;20.13;;;5.00;;
41502;SDS011;27237;42.554;22.966;2022-07-11T05:01:06;32.78;;;9.32;;
41502;SDS011;27237;42.554;22.966;2022-07-11T05:03:32;19.00;;;6.53;;
41502;SDS011;27237;42.554;22.966;2022-07-11T05:05:57;7.18;;;3.50;;
41502;SDS011;27237;42.554;22.966;2022-07-11T05:08:23;3.95;;;2.88;;
41502;SDS011;27237;42.554;22.966;2022-07-11T05:10:49;5.65;;;2.75;;
41502;SDS011;27237;42.554;22.966;2022-07-11T05:13:15;8.27;;;3.25;;
41502;SDS011;27237;42.554;22.966;2022-07-11T05:15:40;7.32;;;3.55;;
41502;SDS011;27237;42.554;22.966;2022-07-11T05:18:06;9.45;;;2.60;;
41502;SDS011;27237;42.554;22.966;2022-07-11T05:20:31;7.82;;;3.15;;
41502;SDS011;27237;42.554;22.966;2022-07-11T05:22:57;7.03;;;2.78;;
41502;SDS011;27237;42.554;22.966;2022-07-11T05:25:23;9.82;;;2.75;;
41502;SDS011;27237;42.554;22.966;2022-07-11T05:27:49;5.15;;;3.10;;
41502;SDS011;27237;42.554;22.966;2022-07-11T05:30:15;4.55;;;2.55;;
41502;SDS011;27237;42.554;22.966;2022-07-11T05:32:41;5.60;;;3.00;;
41502;SDS011;27237;42.554;22.966;2022-07-11T05:35:06;13.10;;;2.90;;
41502;SDS011;27237;42.554;22.966;2022-07-11T05:37:32;7.07;;;2.85;;
41502;SDS011;27237;42.554;22.966;2022-07-11T05:39:58;3.55;;;2.42;;
41502;SDS011;27237;42.554;22.966;2022-07-11T05:42:23;14.20;;;2.50;;
41502;SDS011;27237;42.554;22.966;2022-07-11T05:44:49;8.80;;;2.40;;
41502;SDS011;27237;42.554;22.966;2022-07-11T05:47:15;7.18;;;2.45;;
41502;SDS011;27237;42.554;22.966;2022-07-11T05:49:41;7.80;;;2.70;;
41502;SDS011;27237;42.554;22.966;2022-07-11T05:52:07;5.38;;;2.13;;
41502;SDS011;27237;42.554;22.966;2022-07-11T05:54:33;2.70;;;2.03;;
41502;SDS011;27237;42.554;22.966;2022-07-11T05:56:58;3.72;;;2.10;;
41502;SDS011;27237;42.554;22.966;2022-07-11T05:59:26;4.47;;;1.73;;
41502;SDS011;27237;42.554;22.966;2022-07-11T06:01:52;11.18;;;1.92;;
41502;SDS011;27237;42.554;22.966;2022-07-11T06:04:17;5.82;;;1.70;;
41502;SDS011;27237;42.554;22.966;2022-07-11T06:06:42;7.65;;;1.60;;
41502;SDS011;27237;42.554;22.966;2022-07-11T06:09:08;5.82;;;1.25;;
41502;SDS011;27237;42.554;22.966;2022-07-11T06:11:33;3.10;;;1.48;;
41502;SDS011;27237;42.554;22.966;2022-07-11T06:13:59;1.38;;;1.13;;
41502;SDS011;27237;42.554;22.966;2022-07-11T06:16:25;6.10;;;1.23;;
41502;SDS011;27237;42.554;22.966;2022-07-11T06:18:50;7.25;;;1.40;;
41502;SDS011;27237;42.554;22.966;2022-07-11T06:21:16;5.72;;;1.40;;
41502;SDS011;27237;42.554;22.966;2022-07-11T06:23:42;1.63;;;1.00;;
41502;SDS011;27237;42.554;22.966;2022-07-11T06:26:07;7.60;;;1.27;;
41502;SDS011;27237;42.554;22.966;2022-07-11T06:28:33;11.20;;;1.60;;
41502;SDS011;27237;42.554;22.966;2022-07-11T06:30:59;8.20;;;1.88;;
41502;SDS011;27237;42.554;22.966;2022-07-11T06:33:25;1.95;;;1.20;;
41502;SDS011;27237;42.554;22.966;2022-07-11T06:35:51;3.10;;;0.77;;
41502;SDS011;27237;42.554;22.966;2022-07-11T06:38:16;13.73;;;1.48;;
41502;SDS011;27237;42.554;22.966;2022-07-11T06:40:42;6.78;;;0.80;;
41502;SDS011;27237;42.554;22.966;2022-07-11T06:43:08;1.88;;;0.63;;
41502;SDS011;27237;42.554;22.966;2022-07-11T06:45:37;3.95;;;1.25;;
41502;SDS011;27237;42.554;22.966;2022-07-11T06:48:03;7.95;;;0.93;;
41502;SDS011;27237;42.554;22.966;2022-07-11T06:50:29;4.65;;;1.05;;
41502;SDS011;27237;42.554;22.966;2022-07-11T06:52:55;4.97;;;0.80;;
41502;SDS011;27237;42.554;22.966;2022-07-11T06:55:21;4.18;;;0.63;;
41502;SDS011;27237;42.554;22.966;2022-07-11T06:57:46;1.13;;;0.38;;
41502;SDS011;27237;42.554;22.966;2022-07-11T07:00:12;2.30;;;0.70;;
41502;SDS011;27237;42.554;22.966;2022-07-11T07:02:37;1.95;;;0.45;;
41502;SDS011;27237;42.554;22.966;2022-07-11T07:05:03;3.10;;;0.40;;
41502;SDS011;27237;42.554;22.966;2022-07-11T07:07:32;7.88;;;0.60;;
41502;SDS011;27237;42.554;22.966;2022-07-11T07:09:57;3.08;;;0.55;;
41502;SDS011;27237;42.554;22.966;2022-07-11T07:12:23;1.10;;;0.20;;
41502;SDS011;27237;42.554;22.966;2022-07-11T07:14:48;9.15;;;0.50;;
41502;SDS011;27237;42.554;22.966;2022-07-11T07:17:15;9.18;;;0.50;;
41502;SDS011;27237;42.554;22.966;2022-07-11T07:19:40;8.75;;;0.30;;
41502;SDS011;27237;42.554;22.966;2022-07-11T07:22:06;1.70;;;0.43;;
41502;SDS011;27237;42.554;22.966;2022-07-11T07:24:33;11.55;;;0.45;;
41502;SDS011;27237;42.554;22.966;2022-07-11T07:26:59;3.55;;;0.47;;
41502;SDS011;27237;42.554;22.966;2022-07-11T07:29:24;3.55;;;0.43;;
41502;SDS011;27237;42.554;22.966;2022-07-11T07:31:52;4.57;;;0.60;;
41502;SDS011;27237;42.554;22.966;2022-07-11T07:34:18;5.55;;;0.60;;
41502;SDS011;27237;42.554;22.966;2022-07-11T07:36:44;10.68;;;0.65;;
41502;SDS011;27237;42.554;22.966;2022-07-11T07:39:10;18.63;;;1.23;;
41502;SDS011;27237;42.554;22.966;2022-07-11T07:41:35;7.22;;;0.30;;
41502;SDS011;27237;42.554;22.966;2022-07-11T07:44:01;0.95;;;0.10;;
41502;SDS011;27237;42.554;22.966;2022-07-11T07:46:27;2.88;;;0.30;;
41502;SDS011;27237;42.554;22.966;2022-07-11T07:48:53;7.28;;;0.40;;
41502;SDS011;27237;42.554;22.966;2022-07-11T07:51:18;3.50;;;0.32;;
41502;SDS011;27237;42.554;22.966;2022-07-11T07:53:44;5.13;;;0.40;;
41502;SDS011;27237;42.554;22.966;2022-07-11T07:56:10;0.90;;;0.22;;
41502;SDS011;27237;42.554;22.966;2022-07-11T07:58:35;4.63;;;0.43;;
41502;SDS011;27237;42.554;22.966;2022-07-11T08:01:00;4.45;;;0.20;;
41502;SDS011;27237;42.554;22.966;2022-07-11T08:03:45;1.40;;;0.20;;
41502;SDS011;27237;42.554;22.966;2022-07-11T08:06:10;1.60;;;0.35;;
41502;SDS011;27237;42.554;22.966;2022-07-11T08:08:36;11.75;;;0.63;;
41502;SDS011;27237;42.554;22.966;2022-07-11T08:11:02;2.00;;;0.20;;
41502;SDS011;27237;42.554;22.966;2022-07-11T08:13:28;5.05;;;0.52;;
41502;SDS011;27237;42.554;22.966;2022-07-11T08:15:54;2.88;;;0.30;;
41502;SDS011;27237;42.554;22.966;2022-07-11T08:18:20;6.80;;;0.40;;
41502;SDS011;27237;42.554;22.966;2022-07-11T08:20:45;18.83;;;1.02;;
41502;SDS011;27237;42.554;22.966;2022-07-11T08:23:11;15.60;;;0.35;;
41502;SDS011;27237;42.554;22.966;2022-07-11T08:25:37;4.47;;;0.17;;
41502;SDS011;27237;42.554;22.966;2022-07-11T08:28:04;7.53;;;0.20;;
41502;SDS011;27237;42.554;22.966;2022-07-11T08:30:30;7.43;;;0.15;;
41502;SDS011;27237;42.554;22.966;2022-07-11T08:32:55;1.35;;;0.20;;
41502;SDS011;27237;42.554;22.966;2022-07-11T08:35:21;4.22;;;0.40;;
41502;SDS011;27237;42.554;22.966;2022-07-11T08:37:47;1.95;;;0.13;;
41502;SDS011;27237;42.554;22.966;2022-07-11T08:40:12;1.95;;;0.30;;
41502;SDS011;27237;42.554;22.966;2022-07-11T08:42:41;1.80;;;0.40;;
41502;SDS011;27237;42.554;22.966;2022-07-11T08:45:14;2.50;;;0.30;;
41502;SDS011;27237;42.554;22.966;2022-07-11T08:47:41;3.13;;;0.55;;
41502;SDS011;27237;42.554;22.966;2022-07-11T08:50:11;6.88;;;0.30;;
41502;SDS011;27237;42.554;22.966;2022-07-11T08:55:06;6.88;;;0.55;;
41502;SDS011;27237;42.554;22.966;2022-07-11T08:57:33;6.05;;;0.20;;
41502;SDS011;27237;42.554;22.966;2022-07-11T09:00:00;4.60;;;0.40;;
41502;SDS011;27237;42.554;22.966;2022-07-11T09:02:26;6.43;;;0.32;;
41502;SDS011;27237;42.554;22.966;2022-07-11T09:04:55;3.10;;;0.57;;
41502;SDS011;27237;42.554;22.966;2022-07-11T09:07:20;14.45;;;1.02;;
41502;SDS011;27237;42.554;22.966;2022-07-11T09:09:46;11.10;;;0.70;;
41502;SDS011;27237;42.554;22.966;2022-07-11T09:12:12;3.72;;;0.32;;
41502;SDS011;27237;42.554;22.966;2022-07-11T09:14:44;3.58;;;0.52;;
41502;SDS011;27237;42.554;22.966;2022-07-11T09:17:12;4.32;;;0.30;;
41502;SDS011;27237;42.554;22.966;2022-07-11T09:19:37;1.70;;;0.40;;
41502;SDS011;27237;42.554;22.966;2022-07-11T09:24:53;3.08;;;0.20;;
41502;SDS011;27237;42.554;22.966;2022-07-11T09:27:41;6.75;;;0.57;;
41502;SDS011;27237;42.554;22.966;2022-07-11T09:35:20;4.38;;;0.25;;
41502;SDS011;27237;42.554;22.966;2022-07-11T09:37:47;0.65;;;0.13;;
41502;SDS011;27237;42.554;22.966;2022-07-11T09:40:13;4.55;;;0.38;;
41502;SDS011;27237;42.554;22.966;2022-07-11T09:42:50;3.28;;;0.45;;
41502;SDS011;27237;42.554;22.966;2022-07-11T09:45:17;4.35;;;0.50;;
41502;SDS011;27237;42.554;22.966;2022-07-11T09:50:12;5.32;;;0.52;;
41502;SDS011;27237;42.554;22.966;2022-07-11T09:52:38;1.60;;;0.30;;
41502;SDS011;27237;42.554;22.966;2022-07-11T09:55:04;1.60;;;0.20;;
41502;SDS011;27237;42.554;22.966;2022-07-11T10:00:06;4.80;;;0.52;;
41502;SDS011;27237;42.554;22.966;2022-07-11T10:02:33;2.88;;;0.38;;
41502;SDS011;27237;42.554;22.966;2022-07-11T10:05:00;5.00;;;0.30;;
41502;SDS011;27237;42.554;22.966;2022-07-11T10:07:27;2.88;;;0.40;;
41502;SDS011;27237;42.554;22.966;2022-07-11T10:09:53;9.45;;;0.88;;
41502;SDS011;27237;42.554;22.966;2022-07-11T10:12:19;4.30;;;0.50;;
41502;SDS011;27237;42.554;22.966;2022-07-11T10:14:45;3.22;;;0.40;;
41502;SDS011;27237;42.554;22.966;2022-07-11T10:17:28;1.83;;;0.32;;
41502;SDS011;27237;42.554;22.966;2022-07-11T10:20:09;0.98;;;0.30;;
41502;SDS011;27237;42.554;22.966;2022-07-11T10:30:56;1.83;;;0.40;;
41502;SDS011;27237;42.554;22.966;2022-07-11T10:33:26;2.10;;;0.60;;
41502;SDS011;27237;42.554;22.966;2022-07-11T10:35:53;1.95;;;0.25;;
41502;SDS011;27237;42.554;22.966;2022-07-11T10:38:19;14.52;;;0.40;;
41502;SDS011;27237;42.554;22.966;2022-07-11T10:43:31;3.55;;;0.60;;
41502;SDS011;27237;42.554;22.966;2022-07-11T10:48:59;6.53;;;0.55;;
41502;SDS011;27237;42.554;22.966;2022-07-11T11:00:00;1.90;;;0.22;;
41502;SDS011;27237;42.554;22.966;2022-07-11T11:02:29;5.28;;;0.60;;
41502;SDS011;27237;42.554;22.966;2022-07-11T11:10:05;4.45;;;0.70;;
41502;SDS011;27237;42.554;22.966;2022-07-11T11:15:44;31.25;;;1.27;;
41502;SDS011;27237;42.554;22.966;2022-07-11T11:23:37;3.22;;;0.50;;
41502;SDS011;27237;42.554;22.966;2022-07-11T11:26:19;5.23;;;0.47;;
41502;SDS011;27237;42.554;22.966;2022-07-11T11:31:23;1.00;;;0.30;;
41502;SDS011;27237;42.554;22.966;2022-07-11T11:33:50;4.50;;;0.38;;
41502;SDS011;27237;42.554;22.966;2022-07-11T11:36:17;6.20;;;0.47;;
41502;SDS011;27237;42.554;22.966;2022-07-11T11:38:44;5.53;;;0.40;;
41502;SDS011;27237;42.554;22.966;2022-07-11T11:41:13;1.35;;;0.32;;
41502;SDS011;27237;42.554;22.966;2022-07-11T11:43:42;1.95;;;0.45;;
41502;SDS011;27237;42.554;22.966;2022-07-11T11:46:12;2.20;;;0.38;;
41502;SDS011;27237;42.554;22.966;2022-07-11T11:48:38;1.95;;;0.30;;
41502;SDS011;27237;42.554;22.966;2022-07-11T11:51:14;4.20;;;0.50;;
41502;SDS011;27237;42.554;22.966;2022-07-11T11:53:44;1.65;;;0.32;;
41502;SDS011;27237;42.554;22.966;2022-07-11T11:58:37;0.52;;;0.32;;
41502;SDS011;27237;42.554;22.966;2022-07-11T12:01:03;0.50;;;0.10;;
41502;SDS011;27237;42.554;22.966;2022-07-11T12:03:52;2.55;;;0.22;;
41502;SDS011;27237;42.554;22.966;2022-07-11T12:06:25;4.47;;;0.38;;
41502;SDS011;27237;42.554;22.966;2022-07-11T12:08:58;2.03;;;0.30;;
41502;SDS011;27237;42.554;22.966;2022-07-11T12:11:28;2.42;;;0.38;;
41502;SDS011;27237;42.554;22.966;2022-07-11T12:14:00;1.45;;;0.50;;
41502;SDS011;27237;42.554;22.966;2022-07-11T12:16:28;2.08;;;0.20;;
41502;SDS011;27237;42.554;22.966;2022-07-11T12:21:40;1.23;;;0.20;;
41502;SDS011;27237;42.554;22.966;2022-07-11T12:24:08;1.50;;;0.20;;
41502;SDS011;27237;42.554;22.966;2022-07-11T12:26:36;17.65;;;0.77;;
41502;SDS011;27237;42.554;22.966;2022-07-11T12:34:23;2.85;;;0.63;;
41502;SDS011;27237;42.554;22.966;2022-07-11T12:36:50;28.50;;;0.98;;
41502;SDS011;27237;42.554;22.966;2022-07-11T12:39:26;4.20;;;0.63;;
41502;SDS011;27237;42.554;22.966;2022-07-11T12:41:55;17.40;;;0.50;;
41502;SDS011;27237;42.554;22.966;2022-07-11T12:44:28;11.15;;;0.40;;
41502;SDS011;27237;42.554;22.966;2022-07-11T12:47:14;2.40;;;0.57;;
41502;SDS011;27237;42.554;22.966;2022-07-11T12:49:42;4.78;;;0.70;;
41502;SDS011;27237;42.554;22.966;2022-07-11T12:52:13;17.27;;;0.75;;
41502;SDS011;27237;42.554;22.966;2022-07-11T12:54:40;3.33;;;0.40;;
41502;SDS011;27237;42.554;22.966;2022-07-11T12:57:07;6.82;;;0.52;;
41502;SDS011;27237;42.554;22.966;2022-07-11T12:59:33;2.35;;;0.30;;
41502;SDS011;27237;42.554;22.966;2022-07-11T13:02:09;7.85;;;0.52;;
41502;SDS011;27237;42.554;22.966;2022-07-11T13:10:02;37.47;;;1.15;;
41502;SDS011;27237;42.554;22.966;2022-07-11T13:12:28;22.55;;;1.42;;
41502;SDS011;27237;42.554;22.966;2022-07-11T13:14:56;18.42;;;0.70;;
41502;SDS011;27237;42.554;22.966;2022-07-11T13:17:41;8.23;;;0.95;;
41502;SDS011;27237;42.554;22.966;2022-07-11T13:20:11;11.75;;;0.82;;
41502;SDS011;27237;42.554;22.966;2022-07-11T13:22:39;7.13;;;0.40;;
41502;SDS011;27237;42.554;22.966;2022-07-11T13:25:08;4.57;;;0.70;;
41502;SDS011;27237;42.554;22.966;2022-07-11T13:27:36;4.35;;;0.30;;
41502;SDS011;27237;42.554;22.966;2022-07-11T13:30:02;10.45;;;0.70;;
41502;SDS011;27237;42.554;22.966;2022-07-11T13:32:35;18.33;;;0.77;;
41502;SDS011;27237;42.554;22.966;2022-07-11T13:35:01;20.00;;;0.52;;
41502;SDS011;27237;42.554;22.966;2022-07-11T13:37:27;25.13;;;1.73;;
41502;SDS011;27237;42.554;22.966;2022-07-11T13:39:53;31.70;;;1.50;;
41502;SDS011;27237;42.554;22.966;2022-07-11T13:42:18;7.38;;;0.55;;
41502;SDS011;27237;42.554;22.966;2022-07-11T13:44:44;42.63;;;1.85;;
41502;SDS011;27237;42.554;22.966;2022-07-11T13:47:09;20.23;;;1.88;;
41502;SDS011;27237;42.554;22.966;2022-07-11T13:49:34;20.77;;;2.33;;
41502;SDS011;27237;42.554;22.966;2022-07-11T13:52:00;13.52;;;1.25;;
41502;SDS011;27237;42.554;22.966;2022-07-11T13:54:25;22.42;;;2.50;;
41502;SDS011;27237;42.554;22.966;2022-07-11T13:56:51;7.88;;;1.83;;
41502;SDS011;27237;42.554;22.966;2022-07-11T13:59:16;13.98;;;1.30;;
41502;SDS011;27237;42.554;22.966;2022-07-11T14:01:42;15.10;;;0.75;;
41502;SDS011;27237;42.554;22.966;2022-07-11T14:04:07;3.53;;;0.70;;
41502;SDS011;27237;42.554;22.966;2022-07-11T14:06:33;1.48;;;0.30;;
41502;SDS011;27237;42.554;22.966;2022-07-11T14:09:00;12.52;;;4.97;;
41502;SDS011;27237;42.554;22.966;2022-07-11T14:11:26;4.32;;;1.42;;
41502;SDS011;27237;42.554;22.966;2022-07-11T14:13:52;2.05;;;0.20;;
41502;SDS011;27237;42.554;22.966;2022-07-11T14:16:17;3.08;;;1.30;;
41502;SDS011;27237;42.554;22.966;2022-07-11T14:18:44;3.70;;;2.15;;
41502;SDS011;27237;42.554;22.966;2022-07-11T14:21:09;7.65;;;0.90;;
41502;SDS011;27237;42.554;22.966;2022-07-11T14:23:35;8.48;;;1.98;;
41502;SDS011;27237;42.554;22.966;2022-07-11T14:26:00;6.50;;;2.08;;
41502;SDS011;27237;42.554;22.966;2022-07-11T14:28:26;6.88;;;1.00;;
41502;SDS011;27237;42.554;22.966;2022-07-11T14:30:52;4.93;;;2.50;;
41502;SDS011;27237;42.554;22.966;2022-07-11T14:33:17;16.08;;;10.50;;
41502;SDS011;27237;42.554;22.966;2022-07-11T14:35:43;4.90;;;0.93;;
41502;SDS011;27237;42.554;22.966;2022-07-11T14:38:08;3.78;;;1.23;;
41502;SDS011;27237;42.554;22.966;2022-07-11T14:40:34;5.13;;;0.70;;
41502;SDS011;27237;42.554;22.966;2022-07-11T14:42:59;2.50;;;0.60;;
41502;SDS011;27237;42.554;22.966;2022-07-11T14:45:24;5.97;;;3.70;;
41502;SDS011;27237;42.554;22.966;2022-07-11T14:47:50;6.43;;;2.17;;
41502;SDS011;27237;42.554;22.966;2022-07-11T14:50:16;1.90;;;1.10;;
41502;SDS011;27237;42.554;22.966;2022-07-11T14:52:41;3.17;;;1.50;;
41502;SDS011;27237;42.554;22.966;2022-07-11T14:55:07;4.57;;;2.88;;
41502;SDS011;27237;42.554;22.966;2022-07-11T14:57:32;3.05;;;0.70;;
41502;SDS011;27237;42.554;22.966;2022-07-11T14:59:58;15.80;;;2.75;;
41502;SDS011;27237;42.554;22.966;2022-07-11T15:02:23;7.65;;;0.50;;
41502;SDS011;27237;42.554;22.966;2022-07-11T15:05:07;34.33;;;2.15;;
41502;SDS011;27237;42.554;22.966;2022-07-11T15:07:33;10.73;;;2.00;;
41502;SDS011;27237;42.554;22.966;2022-07-11T15:10:17;6.88;;;1.20;;
41502;SDS011;27237;42.554;22.966;2022-07-11T15:13:01;6.43;;;1.67;;
41502;SDS011;27237;42.554;22.966;2022-07-11T15:15:27;0.60;;;0.32;;
41502;SDS011;27237;42.554;22.966;2022-07-11T15:17:52;5.38;;;0.85;;
41502;SDS011;27237;42.554;22.966;2022-07-11T15:20:17;7.35;;;1.48;;
41502;SDS011;27237;42.554;22.966;2022-07-11T15:22:43;8.65;;;1.95;;
41502;SDS011;27237;42.554;22.966;2022-07-11T15:25:08;2.72;;;1.10;;
41502;SDS011;27237;42.554;22.966;2022-07-11T15:27:34;5.15;;;0.88;;
41502;SDS011;27237;42.554;22.966;2022-07-11T15:29:59;4.32;;;0.80;;
41502;SDS011;27237;42.554;22.966;2022-07-11T15:32:25;8.77;;;1.98;;
41502;SDS011;27237;42.554;22.966;2022-07-11T15:34:52;4.47;;;0.82;;
41502;SDS011;27237;42.554;22.966;2022-07-11T15:37:18;8.32;;;3.15;;
41502;SDS011;27237;42.554;22.966;2022-07-11T15:39:43;3.80;;;0.70;;